Time;durP1;ratioP1;P1;durP2;ratioP2;P2;SDS_P1;SDS_P2;PMS_P1;PMS_P2;Temp;Humidity;BMP_temperature;BMP_pressure;BME280_temperature;BME280_humidity;BME280_pressure;Samples;Min_cycle;Max_cycle;Signal;HPM_P1;HPM_P2
2021/07/15 00:01:11;;;;;;;59.70;28.35;;;17.70;99.90;;;;;;5031571;28;20100;-76
2021/07/15 00:03:37;;;;;;;59.97;27.70;;;17.60;99.90;;;;;;5026608;28;20021;-76
2021/07/15 00:06:03;;;;;;;60.35;29.00;;;17.60;99.90;;;;;;5036458;28;20033;-76
2021/07/15 00:08:29;;;;;;;46.15;23.15;;;17.60;99.90;;;;;;5036344;28;20052;-76
2021/07/15 00:11:01;;;;;;;62.50;28.05;;;17.80;99.90;;;;;;5035028;28;20586;-77
2021/07/15 00:13:28;;;;;;;58.38;27.02;;;17.60;99.90;;;;;;5036642;28;20041;-77
2021/07/15 00:15:57;;;;;;;64.03;25.85;;;17.70;99.90;;;;;;5034690;28;20025;-77
2021/07/15 00:18:30;;;;;;;55.65;26.65;;;17.60;99.90;;;;;;5035905;28;20056;-77
2021/07/15 00:20:58;;;;;;;47.95;26.02;;;17.60;99.90;;;;;;5036001;28;20029;-77
2021/07/15 00:23:23;;;;;;;59.42;29.00;;;17.70;99.90;;;;;;5034646;28;20022;-76
2021/07/15 00:25:49;;;;;;;61.33;28.35;;;17.60;99.90;;;;;;5028659;28;20028;-76
2021/07/15 00:28:15;;;;;;;62.53;28.55;;;17.70;99.90;;;;;;5033655;28;20041;-76
2021/07/15 00:30:41;;;;;;;48.45;24.55;;;17.60;99.90;;;;;;5034853;28;20022;-76
2021/07/15 00:33:09;;;;;;;62.72;28.33;;;17.60;99.90;;;;;;5034473;28;20033;-76
2021/07/15 00:35:35;;;;;;;55.58;28.60;;;17.60;99.90;;;;;;5035215;28;20022;-75
2021/07/15 00:38:01;;;;;;;56.53;26.17;;;17.60;99.90;;;;;;5034711;28;20017;-76
2021/07/15 00:40:27;;;;;;;59.67;26.90;;;17.60;99.90;;;;;;5035590;28;20025;-75
2021/07/15 00:42:53;;;;;;;51.08;27.45;;;17.60;99.90;;;;;;5033932;28;20022;-75
2021/07/15 00:45:18;;;;;;;61.78;28.00;;;17.60;99.90;;;;;;5034737;28;20170;-77
2021/07/15 00:47:48;;;;;;;50.35;27.45;;;17.50;99.90;;;;;;5033955;28;20022;-75
2021/07/15 00:50:16;;;;;;;63.85;27.88;;;17.50;99.90;;;;;;5033996;28;20032;-76
2021/07/15 00:52:42;;;;;;;67.68;29.15;;;17.50;99.90;;;;;;5033812;28;20116;-76
2021/07/15 00:55:12;;;;;;;56.20;26.38;;;17.50;99.90;;;;;;5029588;28;20116;-77
2021/07/15 00:57:38;;;;;;;60.77;27.23;;;17.50;99.90;;;;;;5034612;28;20056;-76
2021/07/15 01:00:08;;;;;;;57.20;27.35;;;17.60;99.90;;;;;;5034511;28;20025;-77
2021/07/15 01:02:36;;;;;;;51.60;25.80;;;17.50;99.90;;;;;;5035172;28;20388;-76
2021/07/15 01:05:26;;;;;;;59.70;26.25;;;17.50;99.90;;;;;;5034071;28;20053;-76
2021/07/15 01:07:52;;;;;;;52.05;27.75;;;17.50;99.90;;;;;;5035186;28;20057;-76
2021/07/15 01:10:25;;;;;;;53.97;29.30;;;17.50;99.90;;;;;;5035544;28;20045;-76
2021/07/15 01:13:25;;;;;;;54.58;28.55;;;17.40;99.90;;;;;;5022805;28;20771;-76
2021/07/15 01:16:12;;;;;;;52.50;27.52;;;17.40;99.90;;;;;;5022850;28;20021;-76
2021/07/15 01:19:25;;;;;;;54.50;27.25;;;17.40;99.90;;;;;;5035580;28;20053;-76
2021/07/15 01:22:08;;;;;;;37.17;21.17;;;17.40;99.90;;;;;;5020917;28;20037;-76
2021/07/15 01:25:19;;;;;;;51.92;25.65;;;17.40;99.90;;;;;;5035774;28;20080;-75
2021/07/15 01:27:51;;;;;;;;;;;17.30;99.90;;;;;;5024369;28;20108;-76
2021/07/15 01:30:31;;;;;;;50.38;25.58;;;17.30;99.90;;;;;;5035990;28;19959;-76
2021/07/15 01:33:09;;;;;;;56.67;26.40;;;17.30;99.90;;;;;;5035164;28;20026;-77
2021/07/15 01:35:49;;;;;;;58.22;28.70;;;17.30;99.90;;;;;;5034873;28;20036;-77
2021/07/15 01:38:18;;;;;;;57.22;25.95;;;17.20;99.90;;;;;;5034292;28;20408;-77
2021/07/15 01:40:54;;;;;;;55.15;27.33;;;17.30;99.90;;;;;;5034209;28;20026;-77
2021/07/15 01:43:28;;;;;;;42.83;24.40;;;17.20;99.90;;;;;;5035453;28;20087;-77
2021/07/15 01:45:54;;;;;;;45.83;25.10;;;17.30;99.90;;;;;;5034115;28;20388;-77
2021/07/15 01:48:20;;;;;;;47.38;22.02;;;17.20;99.90;;;;;;5035178;28;20030;-78
2021/07/15 01:50:48;;;;;;;45.65;23.73;;;17.20;99.90;;;;;;5033502;28;20033;-78
2021/07/15 01:53:13;;;;;;;51.33;25.27;;;17.20;99.90;;;;;;5034122;28;20033;-77
2021/07/15 01:55:40;;;;;;;48.25;25.77;;;17.20;99.90;;;;;;5034386;28;20013;-77
2021/07/15 01:58:07;;;;;;;51.53;25.63;;;17.20;99.90;;;;;;5034410;28;20518;-77
2021/07/15 02:00:33;;;;;;;49.58;26.60;;;17.20;99.90;;;;;;5023590;28;20382;-76
2021/07/15 02:03:01;;;;;;;53.30;26.45;;;17.10;99.90;;;;;;5031439;28;20017;-76
2021/07/15 02:05:27;;;;;;;47.80;24.67;;;17.10;99.90;;;;;;5034624;28;20156;-75
2021/07/15 02:07:55;;;;;;;53.60;25.08;;;17.20;99.90;;;;;;5033773;28;20028;-77
2021/07/15 02:10:24;;;;;;;49.50;25.58;;;17.20;99.90;;;;;;5034235;28;20101;-76
2021/07/15 02:12:50;;;;;;;50.08;25.15;;;17.10;99.90;;;;;;5035139;28;20026;-76
2021/07/15 02:15:16;;;;;;;47.50;23.30;;;17.20;99.90;;;;;;5033578;28;20099;-77
2021/07/15 02:17:43;;;;;;;40.65;23.88;;;17.20;99.90;;;;;;5033305;28;20030;-77
2021/07/15 02:20:15;;;;;;;54.00;25.00;;;17.10;99.90;;;;;;5033861;28;20037;-77
2021/07/15 02:22:41;;;;;;;51.00;24.75;;;17.20;99.90;;;;;;5034111;28;20029;-77
2021/07/15 02:25:07;;;;;;;49.30;25.65;;;17.20;99.90;;;;;;5034571;28;20033;-77
2021/07/15 02:27:35;;;;;;;40.60;24.05;;;17.10;99.90;;;;;;5034591;28;20021;-77
2021/07/15 02:30:03;;;;;;;46.40;23.92;;;17.20;99.90;;;;;;5033593;28;20048;-78
2021/07/15 02:32:29;;;;;;;45.78;23.30;;;17.20;99.90;;;;;;5034787;28;20504;-77
2021/07/15 02:35:01;;;;;;;51.35;25.75;;;17.20;99.90;;;;;;5033061;28;20073;-78
2021/07/15 02:37:34;;;;;;;47.90;23.42;;;17.10;99.90;;;;;;5033906;28;20056;-78
2021/07/15 02:40:02;;;;;;;48.17;24.50;;;17.20;99.90;;;;;;5034696;28;20423;-77
2021/07/15 02:42:28;;;;;;;51.90;26.30;;;17.10;99.90;;;;;;5033374;28;20362;-78
2021/07/15 02:44:54;;;;;;;46.30;24.38;;;17.10;99.90;;;;;;5033332;28;20032;-77
2021/07/15 02:47:19;;;;;;;47.22;23.67;;;17.20;99.90;;;;;;5033271;28;20032;-77
2021/07/15 02:49:46;;;;;;;47.78;24.33;;;17.10;99.90;;;;;;5025444;28;20060;-78
2021/07/15 02:52:12;;;;;;;42.72;24.02;;;17.10;99.90;;;;;;5025925;28;20029;-76
2021/07/15 02:54:39;;;;;;;50.00;24.25;;;17.10;99.90;;;;;;5034178;28;20025;-77
2021/07/15 02:57:30;;;;;;;55.45;24.23;;;17.10;99.90;;;;;;5033562;28;20021;-78
2021/07/15 02:59:58;;;;;;;;;;;17.10;99.90;;;;;;5035370;28;20028;-77
2021/07/15 03:02:34;;;;;;;45.00;22.40;;;17.00;99.90;;;;;;5034492;28;19905;-78
2021/07/15 03:05:06;;;;;;;59.13;25.70;;;17.00;99.90;;;;;;5032816;28;20120;-78
2021/07/15 03:07:36;;;;;;;39.15;22.88;;;17.00;99.90;;;;;;5034420;28;20025;-79
2021/07/15 03:10:05;;;;;;;49.90;23.77;;;17.00;99.90;;;;;;5033863;28;20063;-78
2021/07/15 03:12:34;;;;;;;50.25;24.38;;;17.00;99.90;;;;;;5032972;28;20060;-78
2021/07/15 03:15:01;;;;;;;48.47;24.10;;;17.00;99.90;;;;;;5032443;28;20034;-78
2021/07/15 03:17:34;;;;;;;47.28;21.98;;;17.00;99.90;;;;;;5032956;28;20025;-77
2021/07/15 03:20:04;;;;;;;44.97;22.30;;;17.00;99.90;;;;;;5033426;28;20017;-78
2021/07/15 03:22:33;;;;;;;46.45;22.77;;;17.00;99.90;;;;;;5033510;28;20029;-78
2021/07/15 03:25:02;;;;;;;50.42;21.23;;;17.00;99.90;;;;;;5032539;28;20393;-77
2021/07/15 03:27:30;;;;;;;43.30;21.80;;;17.20;99.90;;;;;;5033170;28;20025;-78
2021/07/15 03:29:58;;;;;;;38.42;20.73;;;17.00;99.90;;;;;;5033615;28;20063;-78
2021/07/15 03:32:25;;;;;;;48.47;22.55;;;17.10;99.90;;;;;;5032789;28;20465;-79
2021/07/15 03:34:51;;;;;;;44.78;23.05;;;17.00;99.90;;;;;;5033094;28;20179;-78
2021/07/15 03:37:18;;;;;;;54.00;24.75;;;17.00;99.90;;;;;;5033256;28;20477;-78
2021/07/15 03:39:47;;;;;;;53.45;25.60;;;16.90;99.90;;;;;;5033583;28;20490;-79
2021/07/15 03:42:14;;;;;;;51.53;22.45;;;16.90;99.90;;;;;;5034181;28;20022;-78
2021/07/15 03:44:40;;;;;;;53.03;24.73;;;16.90;99.90;;;;;;5027819;28;20018;-78
2021/07/15 03:47:07;;;;;;;46.55;25.13;;;16.90;99.90;;;;;;5025002;28;20477;-78
2021/07/15 03:49:34;;;;;;;42.75;24.42;;;16.90;99.90;;;;;;5032450;28;20013;-77
2021/07/15 03:52:01;;;;;;;58.08;26.52;;;16.90;99.90;;;;;;5032404;28;20088;-77
2021/07/15 03:54:28;;;;;;;44.25;22.35;;;16.90;99.90;;;;;;5032565;28;20033;-77
2021/07/15 03:56:54;;;;;;;45.33;23.95;;;16.90;99.90;;;;;;5032737;28;20124;-78
2021/07/15 03:59:21;;;;;;;51.13;25.25;;;16.90;99.90;;;;;;5032511;28;20485;-78
2021/07/15 04:01:57;;;;;;;49.17;23.98;;;16.90;99.90;;;;;;5034289;28;20100;-77
2021/07/15 04:04:27;;;;;;;48.00;23.88;;;16.90;99.90;;;;;;5036984;28;20060;-77
2021/07/15 04:06:53;;;;;;;56.70;26.02;;;16.90;99.90;;;;;;5036932;28;20025;-78
2021/07/15 04:09:21;;;;;;;52.92;24.95;;;17.00;99.90;;;;;;5024430;28;20038;-78
2021/07/15 04:11:47;;;;;;;52.25;24.15;;;16.90;99.90;;;;;;5035978;28;20029;-77
2021/07/15 04:14:21;;;;;;;59.22;25.27;;;16.90;99.90;;;;;;5037148;28;20041;-77
2021/07/15 04:17:01;;;;;;;57.97;26.27;;;17.00;99.90;;;;;;5036888;28;20021;-78
2021/07/15 04:19:27;;;;;;;53.42;25.08;;;17.00;99.90;;;;;;5036968;28;20033;-79
2021/07/15 04:21:54;;;;;;;59.30;23.77;;;16.90;99.90;;;;;;5036122;28;20071;-78
2021/07/15 04:24:22;;;;;;;46.80;25.08;;;17.00;99.90;;;;;;5036334;28;20055;-78
2021/07/15 04:26:48;;;;;;;50.30;24.15;;;16.90;99.90;;;;;;5036518;28;20033;-80
2021/07/15 04:29:17;;;;;;;48.70;23.35;;;16.80;99.90;;;;;;5036519;28;20026;-78
2021/07/15 04:31:53;;;;;;;50.17;24.05;;;16.90;99.90;;;;;;5037042;28;20037;-78
2021/07/15 04:34:19;;;;;;;56.20;24.77;;;17.00;99.90;;;;;;5036780;28;20033;-78
2021/07/15 04:36:46;;;;;;;65.90;25.23;;;16.90;99.90;;;;;;5035716;28;20041;-79
2021/07/15 04:39:13;;;;;;;48.38;22.35;;;16.90;99.90;;;;;;5036231;28;20057;-78
2021/07/15 04:41:41;;;;;;;50.05;25.13;;;16.90;99.90;;;;;;5035691;28;20025;-78
2021/07/15 04:44:10;;;;;;;48.90;26.83;;;16.90;99.90;;;;;;5035921;28;20040;-78
2021/07/15 04:46:38;;;;;;;60.67;26.30;;;16.80;99.90;;;;;;5035388;28;20017;-77
2021/07/15 04:49:06;;;;;;;45.65;23.77;;;16.80;99.90;;;;;;5034325;28;20536;-79
2021/07/15 04:51:34;;;;;;;53.13;24.83;;;17.80;99.90;;;;;;5022603;28;20432;-77
2021/07/15 04:54:03;;;;;;;54.72;26.80;;;16.90;99.90;;;;;;5034756;28;20033;-77
2021/07/15 04:56:28;;;;;;;52.75;25.35;;;16.80;99.90;;;;;;5026360;28;20076;-78
2021/07/15 04:58:56;;;;;;;52.70;25.52;;;16.90;99.90;;;;;;5017332;28;20029;-78
2021/07/15 05:01:22;;;;;;;63.92;28.13;;;16.80;99.90;;;;;;5017433;28;20052;-77
2021/07/15 05:03:48;;;;;;;54.58;27.45;;;16.80;99.90;;;;;;5019244;28;20042;-78
2021/07/15 05:06:14;;;;;;;63.35;27.52;;;16.80;99.90;;;;;;5021183;28;20029;-78
2021/07/15 05:08:39;;;;;;;62.25;26.75;;;16.80;99.90;;;;;;5016316;28;20033;-78
2021/07/15 05:11:08;;;;;;;63.63;28.60;;;16.80;99.90;;;;;;5019185;28;20026;-78
2021/07/15 05:13:34;;;;;;;57.75;26.80;;;16.80;99.90;;;;;;5016729;28;20079;-79
2021/07/15 05:16:00;;;;;;;62.33;28.73;;;16.70;99.90;;;;;;5018621;28;20045;-78
2021/07/15 05:18:25;;;;;;;60.22;29.10;;;16.80;99.90;;;;;;5021542;28;20061;-78
2021/07/15 05:20:52;;;;;;;69.68;29.00;;;16.80;99.90;;;;;;5016790;28;20026;-78
2021/07/15 05:23:18;;;;;;;67.05;30.13;;;16.70;99.90;;;;;;5022504;28;20374;-78
2021/07/15 05:25:44;;;;;;;64.63;28.92;;;16.70;99.90;;;;;;5016221;28;20029;-79
2021/07/15 05:28:10;;;;;;;60.00;28.27;;;16.70;99.90;;;;;;5016041;28;20022;-77
2021/07/15 05:30:36;;;;;;;54.17;26.58;;;17.10;99.90;;;;;;5017227;28;20105;-77
2021/07/15 05:33:01;;;;;;;55.42;24.98;;;16.80;99.90;;;;;;5017752;28;20029;-77
2021/07/15 05:35:27;;;;;;;55.30;25.80;;;16.80;99.90;;;;;;5021059;28;20061;-77
2021/07/15 05:37:53;;;;;;;61.60;27.60;;;16.80;99.90;;;;;;5017298;28;20369;-77
2021/07/15 05:40:19;;;;;;;52.65;26.58;;;16.90;99.90;;;;;;5021123;28;20036;-78
2021/07/15 05:42:44;;;;;;;47.70;25.00;;;17.00;99.90;;;;;;5019124;28;20366;-77
2021/07/15 05:45:10;;;;;;;52.17;24.30;;;16.80;99.90;;;;;;5017898;28;20748;-78
2021/07/15 05:47:36;;;;;;;42.40;23.38;;;17.40;99.90;;;;;;5019947;28;20096;-77
2021/07/15 05:50:03;;;;;;;39.55;19.23;;;16.80;99.90;;;;;;5034162;28;20034;-78
2021/07/15 05:52:29;;;;;;;47.60;21.60;;;16.80;99.90;;;;;;5031581;28;20044;-77
2021/07/15 05:54:57;;;;;;;43.97;19.60;;;16.80;99.90;;;;;;5034025;28;20037;-77
2021/07/15 05:57:23;;;;;;;49.08;20.92;;;16.90;99.90;;;;;;5034219;28;20056;-76
2021/07/15 05:59:48;;;;;;;32.90;15.02;;;16.90;99.90;;;;;;5033692;28;20022;-78
2021/07/15 06:02:15;;;;;;;42.20;19.73;;;16.90;99.90;;;;;;5034268;28;20024;-77
2021/07/15 06:04:41;;;;;;;36.20;17.88;;;17.00;99.90;;;;;;5034594;28;20045;-76
2021/07/15 06:07:06;;;;;;;39.80;17.27;;;17.00;99.90;;;;;;5031153;28;20113;-77
2021/07/15 06:09:32;;;;;;;37.50;17.80;;;17.10;99.90;;;;;;5033588;28;20018;-78
2021/07/15 06:11:57;;;;;;;31.85;17.23;;;17.10;99.90;;;;;;5034248;28;20537;-77
2021/07/15 06:14:23;;;;;;;38.42;17.58;;;17.10;99.90;;;;;;5029979;28;20072;-78
2021/07/15 06:16:49;;;;;;;44.47;17.05;;;17.10;99.90;;;;;;5033133;28;20040;-77
2021/07/15 06:19:14;;;;;;;42.95;16.90;;;17.10;99.90;;;;;;5033800;28;20350;-79
2021/07/15 06:21:40;;;;;;;39.72;16.88;;;17.10;99.90;;;;;;5032799;28;20487;-77
2021/07/15 06:24:05;;;;;;;35.17;15.52;;;17.10;99.90;;;;;;5028396;28;20021;-77
2021/07/15 06:26:31;;;;;;;36.50;16.50;;;17.20;99.90;;;;;;5030247;28;20118;-77
2021/07/15 06:28:56;;;;;;;32.15;16.40;;;17.10;99.90;;;;;;5031945;28;20071;-77
2021/07/15 06:31:24;;;;;;;31.17;16.02;;;17.10;99.90;;;;;;5032063;28;20028;-76
2021/07/15 06:33:54;;;;;;;38.08;15.82;;;17.20;99.90;;;;;;5030630;28;20549;-77
2021/07/15 06:36:20;;;;;;;34.60;15.57;;;17.20;99.90;;;;;;5032922;28;20037;-77
2021/07/15 06:38:47;;;;;;;36.67;16.48;;;17.20;99.90;;;;;;5032125;28;20424;-76
2021/07/15 06:41:19;;;;;;;43.55;17.40;;;17.30;99.90;;;;;;5031812;28;20033;-76
2021/07/15 06:43:44;;;;;;;32.33;17.02;;;17.40;99.90;;;;;;5032682;28;20036;-77
2021/07/15 06:46:22;;;;;;;32.20;16.35;;;17.30;99.90;;;;;;5032308;28;20029;-77
2021/07/15 06:48:54;;;;;;;38.03;16.30;;;18.20;99.90;;;;;;5031473;28;20028;-76
2021/07/15 06:51:20;;;;;;;30.50;16.30;;;17.20;99.90;;;;;;5031076;28;20083;-76
2021/07/15 06:53:51;;;;;;;41.20;17.95;;;17.20;99.90;;;;;;5033266;28;20037;-75
2021/07/15 06:56:17;;;;;;;39.10;16.33;;;17.20;99.90;;;;;;5025473;28;20045;-75
2021/07/15 06:58:42;;;;;;;30.50;17.63;;;18.00;99.90;;;;;;5024544;28;20109;-77
2021/07/15 07:01:20;;;;;;;33.28;16.15;;;18.10;99.90;;;;;;5029396;28;20041;-77
2021/07/15 07:03:45;;;;;;;32.13;16.98;;;17.50;99.90;;;;;;5036441;28;20063;-78
2021/07/15 07:06:42;;;;;;;26.73;14.77;;;17.50;99.90;;;;;;5036039;28;20191;-79
2021/07/15 07:09:08;;;;;;;37.20;18.13;;;17.40;99.90;;;;;;5034877;28;20026;-76
2021/07/15 07:15:30;;;;;;;36.60;19.00;;;17.00;99.90;;;;;;5034762;28;20056;-76
2021/07/15 07:18:19;;;;;;;40.47;17.48;;;16.50;99.90;;;;;;4951992;29;20127;-76
2021/07/15 07:21:18;;;;;;;39.97;20.42;;;16.80;99.90;;;;;;4952567;29;20035;-75
2021/07/15 07:31:00;;;;;;;40.20;18.63;;;16.60;99.90;;;;;;4951732;29;20042;-76
2021/07/15 07:33:41;;;;;;;41.40;20.02;;;16.90;99.90;;;;;;4949762;29;20055;-77
2021/07/15 07:37:05;;;;;;;34.97;19.60;;;17.80;99.90;;;;;;4939676;29;20019;-76
2021/07/15 07:39:43;;;;;;;27.58;16.95;;;16.50;99.90;;;;;;4956955;29;20063;-77
2021/07/15 07:42:12;;;;;;;35.45;20.85;;;17.60;99.90;;;;;;4956437;29;20128;-76
2021/07/15 07:44:49;;;;;;;40.53;19.23;;;18.00;99.90;;;;;;4945194;29;20112;-76
2021/07/15 07:47:15;;;;;;;35.60;18.52;;;16.90;99.90;;;;;;4956941;29;20507;-77
2021/07/15 07:49:41;;;;;;;28.30;15.15;;;16.90;99.90;;;;;;4957177;28;20055;-77
2021/07/15 07:52:06;;;;;;;32.88;16.33;;;16.90;99.90;;;;;;5028274;28;20030;-77
2021/07/15 07:54:33;;;;;;;37.95;16.83;;;16.90;99.90;;;;;;5037897;28;20388;-77
2021/07/15 07:56:59;;;;;;;30.38;17.02;;;16.90;99.90;;;;;;5044234;28;20029;-75
2021/07/15 07:59:25;;;;;;;35.15;16.90;;;16.90;99.90;;;;;;5051578;28;20039;-75
2021/07/15 08:01:50;;;;;;;28.90;17.35;;;16.90;99.90;;;;;;5049827;28;20067;-73
2021/07/15 08:04:16;;;;;;;30.45;17.33;;;17.00;99.90;;;;;;5052529;28;20073;-76
2021/07/15 08:06:42;;;;;;;32.05;17.17;;;17.00;99.90;;;;;;5049279;28;20028;-75
2021/07/15 08:09:12;;;;;;;29.70;16.73;;;16.90;99.90;;;;;;5031529;28;20115;-77
2021/07/15 08:11:43;;;;;;;30.92;15.57;;;16.90;99.90;;;;;;5050894;28;20063;-74
2021/07/15 08:14:09;;;;;;;35.08;17.70;;;17.10;99.90;;;;;;5045890;28;20485;-76
2021/07/15 08:16:34;;;;;;;33.00;16.33;;;17.00;99.90;;;;;;5050919;28;20072;-76
2021/07/15 08:19:00;;;;;;;24.15;14.98;;;17.00;99.90;;;;;;5053208;28;20022;-75
2021/07/15 08:21:26;;;;;;;39.28;16.23;;;17.00;99.90;;;;;;5024505;28;20050;-75
2021/07/15 08:23:52;;;;;;;31.75;14.02;;;17.00;99.90;;;;;;5050740;28;20147;-75
2021/07/15 08:26:18;;;;;;;17.73;14.70;;;17.60;99.90;;;;;;5052364;28;20036;-74
2021/07/15 08:28:46;;;;;;;22.27;14.40;;;17.10;99.90;;;;;;5051193;28;20029;-76
2021/07/15 08:31:12;;;;;;;26.45;14.82;;;17.10;99.90;;;;;;5052601;28;20036;-75
2021/07/15 08:33:39;;;;;;;27.23;13.35;;;17.20;99.90;;;;;;5049865;28;20033;-76
2021/07/15 08:36:05;;;;;;;26.52;13.15;;;17.20;99.90;;;;;;5050866;28;20025;-76
2021/07/15 08:38:30;;;;;;;28.67;12.80;;;17.20;99.90;;;;;;5052085;28;20380;-75
2021/07/15 08:40:56;;;;;;;26.77;13.98;;;17.30;99.90;;;;;;5035356;28;20022;-76
2021/07/15 08:43:24;;;;;;;29.70;13.45;;;17.30;99.90;;;;;;5034493;28;20026;-76
2021/07/15 08:45:51;;;;;;;24.38;15.07;;;17.30;99.90;;;;;;5034580;28;20029;-76
2021/07/15 08:48:19;;;;;;;26.05;14.02;;;17.30;99.90;;;;;;5034629;28;20509;-76
2021/07/15 08:50:45;;;;;;;24.70;13.70;;;17.30;99.90;;;;;;5020675;28;20025;-76
2021/07/15 08:53:11;;;;;;;26.13;15.57;;;17.30;99.90;;;;;;5027910;28;20091;-76
2021/07/15 08:58:16;;;;;;;29.10;13.88;;;17.40;99.90;;;;;;5052632;28;20025;-74
2021/07/15 09:00:46;;;;;;;23.90;13.43;;;17.40;99.90;;;;;;5046097;28;20485;-75
2021/07/15 09:03:48;;;;;;;26.42;12.80;;;17.40;99.90;;;;;;5041265;28;20051;-75
2021/07/15 09:06:20;;;;;;;25.20;12.55;;;17.60;99.90;;;;;;4997248;28;20050;-75
2021/07/15 09:08:50;;;;;;;16.40;11.93;;;17.70;99.90;;;;;;4999361;28;20053;-74
2021/07/15 09:11:15;;;;;;;24.77;12.77;;;17.50;99.90;;;;;;5003591;28;20112;-74
2021/07/15 09:13:41;;;;;;;23.90;13.80;;;17.50;99.90;;;;;;4999753;28;20125;-74
2021/07/15 09:16:12;;;;;;;21.55;12.98;;;17.60;99.90;;;;;;4999507;28;20033;-74
2021/07/15 09:18:58;;;;;;;;;;;17.50;99.90;;;;;;5020677;28;20490;-75
2021/07/15 09:21:33;;;;;;;27.70;13.70;;;17.40;99.90;;;;;;5001283;28;19973;-76
2021/07/15 09:24:44;;;;;;;24.83;14.43;;;17.50;99.90;;;;;;4998715;28;20513;-75
2021/07/15 09:27:39;;;;;;;27.70;14.40;;;18.20;99.90;;;;;;4980362;28;20113;-74
2021/07/15 09:30:09;;;;;;;27.85;13.82;;;17.70;99.90;;;;;;5000317;28;20112;-73
2021/07/15 09:32:52;;;;;;;33.00;12.35;;;17.50;99.90;;;;;;4997242;28;20022;-75
2021/07/15 09:35:47;;;;;;;18.48;12.55;;;17.60;99.90;;;;;;4998412;28;20121;-76
2021/07/15 09:38:39;;;;;;;23.45;11.27;;;18.10;99.90;;;;;;4982553;28;20076;-76
2021/07/15 09:41:07;;;;;;;21.55;12.27;;;17.70;99.90;;;;;;4999259;28;20046;-75
2021/07/15 09:43:35;;;;;;;28.70;12.77;;;17.70;99.90;;;;;;4997934;28;20045;-75
2021/07/15 09:46:18;;;;;;;32.45;14.30;;;17.80;99.90;;;;;;5001111;28;20093;-74
2021/07/15 09:48:47;;;;;;;23.50;13.80;;;17.70;99.90;;;;;;4999832;28;20058;-77
2021/07/15 09:51:33;;;;;;;25.25;13.73;;;17.80;99.90;;;;;;4998391;28;20036;-77
2021/07/15 09:54:14;;;;;;;30.38;14.82;;;17.70;99.90;;;;;;4995082;28;21243;-77
2021/07/15 09:56:40;;;;;;;;;;;18.20;99.90;;;;;;4998501;28;20025;-74
2021/07/15 09:59:12;;;;;;;30.73;16.33;;;17.70;99.90;;;;;;4996688;28;19963;-73
2021/07/15 10:05:03;;;;;;;32.30;15.75;;;17.60;99.90;;;;;;5013460;28;20046;-77
2021/07/15 10:08:11;;;;;;;27.77;15.07;;;17.20;99.90;;;;;;5036342;28;20064;-76
2021/07/15 10:10:51;;;;;;;26.52;14.88;;;17.60;99.90;;;;;;5036160;28;20021;-77
2021/07/15 10:13:26;;;;;;;23.45;15.05;;;18.20;99.90;;;;;;5037283;28;20032;-77
2021/07/15 10:15:52;;;;;;;27.95;13.57;;;17.70;99.90;;;;;;5031073;28;20044;-77
2021/07/15 10:18:40;;;;;;;27.20;13.88;;;17.50;99.90;;;;;;5044888;28;20028;-76
2021/07/15 10:21:09;;;;;;;25.38;14.45;;;17.60;99.90;;;;;;5043090;28;20809;-77
2021/07/15 10:23:37;;;;;;;25.23;15.40;;;17.50;99.90;;;;;;5043874;28;20037;-77
2021/07/15 10:26:05;;;;;;;27.60;14.75;;;17.60;99.90;;;;;;5045750;28;20037;-77
2021/07/15 10:28:31;;;;;;;32.17;14.57;;;17.60;99.90;;;;;;5044031;28;20082;-76
2021/07/15 10:30:59;;;;;;;30.60;15.82;;;17.60;99.90;;;;;;5048795;28;20522;-76
2021/07/15 10:33:26;;;;;;;27.15;14.77;;;17.60;99.90;;;;;;5046759;28;20037;-78
2021/07/15 10:35:51;;;;;;;24.83;14.73;;;17.50;99.90;;;;;;5047354;28;20537;-75
2021/07/15 10:38:20;;;;;;;26.77;16.58;;;17.50;99.90;;;;;;5048933;28;20025;-76
2021/07/15 10:40:46;;;;;;;31.50;15.10;;;17.50;99.90;;;;;;5041656;28;20029;-76
2021/07/15 10:43:12;;;;;;;24.50;15.27;;;17.40;99.90;;;;;;5031305;28;20075;-76
2021/07/15 10:45:39;;;;;;;18.92;14.20;;;17.40;99.90;;;;;;5032549;28;20030;-74
2021/07/15 10:48:06;;;;;;;25.90;16.05;;;17.40;99.90;;;;;;5043159;28;20021;-76
2021/07/15 10:50:31;;;;;;;24.95;14.85;;;17.40;99.90;;;;;;5032954;22;20076;-76
2021/07/15 10:52:58;;;;;;;20.10;14.93;;;17.30;99.90;;;;;;5006678;28;20402;-76
2021/07/15 10:55:25;;;;;;;29.60;16.58;;;17.30;99.90;;;;;;5006248;28;20034;-77
2021/07/15 10:57:51;;;;;;;25.80;17.10;;;17.30;99.90;;;;;;5001746;28;20072;-76
2021/07/15 11:00:21;;;;;;;30.35;17.23;;;17.30;99.90;;;;;;5008962;28;20026;-75
2021/07/15 11:02:47;;;;;;;35.38;19.23;;;17.30;99.90;;;;;;5009351;28;20076;-75
2021/07/15 11:05:29;;;;;;;32.08;18.10;;;17.20;99.90;;;;;;5007145;28;20068;-73
2021/07/15 11:07:55;;;;;;;30.60;18.52;;;17.30;99.90;;;;;;5008557;28;20417;-75
2021/07/15 11:10:22;;;;;;;32.63;18.90;;;17.20;99.90;;;;;;5006602;28;20014;-76
2021/07/15 11:12:54;;;;;;;36.97;20.42;;;17.20;99.90;;;;;;5007258;28;20026;-75
2021/07/15 11:15:20;;;;;;;34.75;20.05;;;17.30;99.90;;;;;;5007012;28;20054;-74
2021/07/15 11:17:50;;;;;;;33.58;19.80;;;17.30;99.90;;;;;;5010907;28;20076;-75
2021/07/15 11:20:29;;;;;;;36.35;18.95;;;17.40;99.90;;;;;;5004333;28;20437;-75
2021/07/15 11:23:25;;;;;;;35.53;20.87;;;17.40;99.90;;;;;;5005575;28;20026;-75
2021/07/15 11:25:51;;;;;;;39.47;21.10;;;17.40;99.90;;;;;;4999046;28;20807;-76
2021/07/15 11:28:20;;;;;;;37.65;21.27;;;17.40;99.90;;;;;;5001558;28;20029;-76
2021/07/15 11:30:56;;;;;;;35.45;21.55;;;17.50;99.90;;;;;;5002339;28;20042;-75
2021/07/15 11:33:21;;;;;;;31.05;20.92;;;17.40;99.90;;;;;;5004408;28;20027;-74
2021/07/15 11:36:08;;;;;;;35.10;20.25;;;17.50;99.90;;;;;;5005556;28;20104;-75
2021/07/15 11:38:57;;;;;;;39.60;20.08;;;17.50;99.90;;;;;;5004748;28;20092;-76
2021/07/15 11:41:23;;;;;;;31.65;18.48;;;17.50;99.90;;;;;;4999922;28;20036;-75
2021/07/15 11:43:51;;;;;;;33.13;19.50;;;17.50;99.90;;;;;;4999717;28;20069;-75
2021/07/15 11:46:22;;;;;;;35.30;21.25;;;17.60;99.90;;;;;;5006898;28;20758;-74
2021/07/15 11:49:07;;;;;;;31.67;19.45;;;17.70;99.90;;;;;;5005775;28;20045;-75
2021/07/15 11:51:51;;;;;;;34.55;19.40;;;17.70;99.90;;;;;;5008378;28;20100;-74
2021/07/15 11:54:20;;;;;;;44.30;20.80;;;17.80;99.90;;;;;;5006918;28;20038;-74
2021/07/15 11:57:13;;;;;;;29.73;19.52;;;17.80;99.90;;;;;;4991515;28;20084;-75
2021/07/15 12:00:05;;;;;;;40.67;21.85;;;17.80;99.90;;;;;;5002905;28;20022;-75
2021/07/15 12:02:37;;;;;;;39.85;20.38;;;17.90;99.90;;;;;;5000443;28;20121;-75
2021/07/15 12:05:30;;;;;;;39.63;20.48;;;17.90;99.90;;;;;;5002747;28;20125;-77
2021/07/15 12:08:12;;;;;;;35.25;20.58;;;17.90;99.90;;;;;;5004722;28;20026;-75
2021/07/15 12:10:42;;;;;;;34.10;17.75;;;18.00;99.90;;;;;;5010681;28;20041;-74
2021/07/15 12:13:10;;;;;;;27.10;18.30;;;18.00;99.90;;;;;;5000208;28;20040;-75
2021/07/15 12:15:39;;;;;;;27.27;18.88;;;18.10;99.90;;;;;;5012576;28;20022;-74
2021/07/15 12:18:22;;;;;;;25.35;15.13;;;18.30;99.90;;;;;;5002922;28;20018;-75
2021/07/15 12:20:54;;;;;;;23.33;15.35;;;18.30;99.90;;;;;;5004110;28;20026;-74
2021/07/15 12:23:24;;;;;;;33.78;17.45;;;18.40;99.90;;;;;;5137388;22;20058;-75
2021/07/15 12:25:52;;;;;;;28.75;17.15;;;18.40;99.90;;;;;;5016569;28;20385;-76
2021/07/15 12:28:20;;;;;;;28.60;16.45;;;18.40;99.90;;;;;;5009608;28;20648;-74
2021/07/15 12:30:56;;;;;;;22.77;15.35;;;18.40;99.90;;;;;;5015394;28;20034;-76
2021/07/15 12:33:33;;;;;;;21.25;16.23;;;18.40;99.90;;;;;;5014511;28;20044;-76
2021/07/15 12:35:58;;;;;;;20.45;14.60;;;18.40;99.90;;;;;;5020993;28;20121;-74
2021/07/15 12:38:31;;;;;;;30.45;16.35;;;18.40;99.90;;;;;;5019430;28;20116;-73
2021/07/15 12:41:15;;;;;;;26.10;15.55;;;18.40;99.90;;;;;;5015814;28;20030;-75
2021/07/15 12:43:44;;;;;;;32.08;16.10;;;18.40;99.90;;;;;;5019747;28;20030;-73
2021/07/15 12:46:16;;;;;;;21.60;14.05;;;18.40;99.90;;;;;;5012121;28;20021;-74
2021/07/15 12:48:51;;;;;;;25.70;14.77;;;18.30;99.90;;;;;;5022246;28;20061;-75
2021/07/15 12:51:19;;;;;;;26.10;15.63;;;18.30;99.90;;;;;;5014798;28;20439;-74
2021/07/15 12:53:48;;;;;;;28.38;15.10;;;18.30;99.90;;;;;;5021666;28;20052;-75
2021/07/15 12:56:19;;;;;;;25.50;15.43;;;18.30;99.90;;;;;;5016279;28;20037;-74
2021/07/15 12:59:00;;;;;;;24.17;15.40;;;18.20;99.90;;;;;;5009809;28;20022;-74
2021/07/15 13:01:26;;;;;;;24.02;15.20;;;18.20;99.90;;;;;;5012000;28;20033;-74
2021/07/15 13:04:10;;;;;;;25.35;15.80;;;18.20;99.90;;;;;;5017166;28;20170;-74